METAR Data
IDs: Format: Raw Decoded Include TAF

Data at: 0107 UTC 01 Mar 2021

LBWN 010100Z 31003KT CAVOK 01/M02 Q1025 NOSIG